createdAt,value
2022-08-05T00:01:35.969Z,3.38
2022-08-05T00:04:05.211Z,3.25
2022-08-05T00:06:36.521Z,3.47
2022-08-05T00:09:05.235Z,3.38
2022-08-05T00:11:48.415Z,3.70
2022-08-05T00:14:17.941Z,3.13
2022-08-05T00:19:24.979Z,3.50
2022-08-05T00:22:01.484Z,3.10
2022-08-05T00:24:30.989Z,3.42
2022-08-05T00:27:00.212Z,3.00
2022-08-05T00:29:37.767Z,3.10
2022-08-05T00:32:12.362Z,3.17
2022-08-05T00:35:04.686Z,3.30
2022-08-05T00:37:50.987Z,3.28
2022-08-05T00:40:27.943Z,3.10
2022-08-05T00:42:58.877Z,3.40
2022-08-05T00:45:37.946Z,3.00
2022-08-05T00:48:09.254Z,3.70
2022-08-05T00:50:38.865Z,3.20
2022-08-05T00:54:00.363Z,3.28
2022-08-05T00:56:07.903Z,3.03
2022-08-05T00:58:36.955Z,3.20
2022-08-05T01:03:40.584Z,3.42
2022-08-05T01:06:14.170Z,3.17
2022-08-05T01:08:44.646Z,3.33
2022-08-05T01:11:33.520Z,3.38
2022-08-05T01:14:28.261Z,3.03
2022-08-05T01:17:03.251Z,3.40
2022-08-05T01:20:00.863Z,3.20
2022-08-05T01:22:57.180Z,3.35
2022-08-05T01:25:53.292Z,3.00
2022-08-05T01:28:24.570Z,3.05
2022-08-05T01:31:08.612Z,3.55
2022-08-05T01:33:49.139Z,2.97
2022-08-05T01:36:20.929Z,3.40
2022-08-05T01:38:50.005Z,3.33
2022-08-05T01:41:25.712Z,2.83
2022-08-05T01:43:54.754Z,3.10
2022-08-05T01:46:42.828Z,3.65
2022-08-05T01:49:24.101Z,3.35
2022-08-05T01:51:58.926Z,3.30
2022-08-05T01:54:46.349Z,3.00
2022-08-05T01:58:29.499Z,2.90
2022-08-05T02:00:13.003Z,3.20
2022-08-05T02:03:03.721Z,3.10
2022-08-05T02:05:35.940Z,3.08
2022-08-05T02:08:05.163Z,3.58
2022-08-05T02:13:16.871Z,3.20
2022-08-05T02:16:01.657Z,3.00
2022-08-05T02:18:42.721Z,3.28
2022-08-05T02:21:15.556Z,2.65
2022-08-05T02:23:46.642Z,3.05
2022-08-05T02:26:22.180Z,2.80
2022-08-05T02:28:50.499Z,3.10
2022-08-05T02:31:26.645Z,3.03
2022-08-05T02:33:59.733Z,3.00
2022-08-05T02:36:31.655Z,2.60
2022-08-05T02:39:03.082Z,2.90
2022-08-05T02:41:43.304Z,2.80
2022-08-05T02:44:21.869Z,2.90
2022-08-05T02:46:58.652Z,3.00
2022-08-05T02:52:13.643Z,2.80
2022-08-05T02:54:57.797Z,2.80
2022-08-05T02:58:09.459Z,3.03
2022-08-05T03:00:13.753Z,2.83
2022-08-05T03:02:43.967Z,2.40
2022-08-05T03:05:13.843Z,2.67
2022-08-05T03:08:00.435Z,2.90
2022-08-05T03:10:30.879Z,2.80
2022-08-05T03:15:28.130Z,2.53
2022-08-05T03:17:57.813Z,2.50
2022-08-05T03:20:25.640Z,2.92
2022-08-05T03:22:57.614Z,2.72
2022-08-05T03:25:32.612Z,2.60
2022-08-05T03:28:04.611Z,2.70
2022-08-05T03:30:34.526Z,2.60
2022-08-05T03:33:04.362Z,2.88
2022-08-05T03:35:40.738Z,2.88
2022-08-05T03:38:14.569Z,2.45
2022-08-05T03:40:45.287Z,2.55
2022-08-05T03:44:08.167Z,2.60
2022-08-05T03:46:05.455Z,2.80
2022-08-05T03:48:36.801Z,2.83
2022-08-05T03:55:07.137Z,2.55
2022-08-05T03:56:58.949Z,2.50
2022-08-05T03:59:47.584Z,2.60
2022-08-05T04:02:38.594Z,2.80
2022-08-05T04:05:14.643Z,3.60
2022-08-05T04:07:58.501Z,2.75
2022-08-05T04:10:33.226Z,2.55
2022-08-05T04:13:07.767Z,2.50
2022-08-05T04:15:36.229Z,2.53
2022-08-05T04:18:06.682Z,2.80
2022-08-05T04:20:35.079Z,2.60
2022-08-05T04:23:02.659Z,2.67
2022-08-05T04:28:30.702Z,2.55
2022-08-05T04:31:00.832Z,2.33
2022-08-05T04:34:17.343Z,2.65
2022-08-05T04:36:49.462Z,2.42
2022-08-05T04:39:04.880Z,2.67
2022-08-05T04:41:37.089Z,2.88
2022-08-05T04:44:09.407Z,2.33
2022-08-05T04:46:38.752Z,2.42
2022-08-05T04:51:45.097Z,2.20
2022-08-05T04:54:14.818Z,2.33
2022-08-05T04:56:42.448Z,2.47
2022-08-05T04:59:22.400Z,2.30
2022-08-05T05:02:07.036Z,2.72
2022-08-05T05:04:50.547Z,2.30
2022-08-05T05:07:29.275Z,2.58
2022-08-05T05:12:27.225Z,2.42
2022-08-05T05:14:55.278Z,2.35
2022-08-05T05:17:24.896Z,2.28
2022-08-05T05:20:12.875Z,2.97
2022-08-05T05:22:41.130Z,2.35
2022-08-05T05:25:16.867Z,2.60
2022-08-05T05:27:53.743Z,2.80
2022-08-05T05:30:29.783Z,2.35
2022-08-05T05:33:03.744Z,2.37
2022-08-05T05:35:48.088Z,2.67
2022-08-05T05:38:22.249Z,2.63
2022-08-05T05:40:55.921Z,2.97
2022-08-05T05:43:54.336Z,2.15
2022-08-05T05:46:15.784Z,2.33
2022-08-05T05:48:44.594Z,2.47
2022-08-05T05:51:25.806Z,2.08
2022-08-05T05:53:59.529Z,2.50
2022-08-05T05:56:32.432Z,2.28
2022-08-05T05:59:07.377Z,3.00
2022-08-05T06:01:38.892Z,2.50
2022-08-05T06:04:12.906Z,2.67
2022-08-05T06:06:47.318Z,2.20
2022-08-05T06:09:24.806Z,2.20
2022-08-05T06:11:59.633Z,2.60
2022-08-05T06:14:31.223Z,2.70
2022-08-05T06:17:02.078Z,2.45
2022-08-05T06:19:57.029Z,2.50
2022-08-05T06:22:33.656Z,2.45
2022-08-05T06:25:25.223Z,2.33
2022-08-05T06:28:09.521Z,2.35
2022-08-05T06:30:41.319Z,2.72
2022-08-05T06:33:09.988Z,2.10
2022-08-05T06:36:03.380Z,2.58
2022-08-05T06:38:35.587Z,2.53
2022-08-05T06:41:04.970Z,2.13
2022-08-05T06:43:58.189Z,2.20
2022-08-05T06:46:20.602Z,2.33
2022-08-05T06:48:58.755Z,2.33
2022-08-05T06:51:31.057Z,2.38
2022-08-05T06:54:04.012Z,2.38
2022-08-05T06:56:33.421Z,1.80
2022-08-05T06:59:08.686Z,2.45
2022-08-05T07:01:40.556Z,1.88
2022-08-05T07:04:10.213Z,2.30
2022-08-05T07:06:37.862Z,2.13
2022-08-05T07:09:05.652Z,2.10
2022-08-05T07:11:36.800Z,1.92
2022-08-05T07:14:32.269Z,1.98
2022-08-05T07:18:00.824Z,2.10
2022-08-05T07:22:42.210Z,2.10
2022-08-05T07:25:55.552Z,2.00
2022-08-05T07:28:03.939Z,2.00
2022-08-05T07:30:38.733Z,2.00
2022-08-05T07:33:15.960Z,1.75
2022-08-05T07:36:04.410Z,1.75
2022-08-05T07:38:43.703Z,1.83
2022-08-05T07:42:13.354Z,1.98
2022-08-05T07:44:14.435Z,2.00
2022-08-05T07:46:49.673Z,1.77
2022-08-05T07:49:19.536Z,2.03
2022-08-05T07:51:53.023Z,2.00
2022-08-05T07:54:31.511Z,1.92
2022-08-05T07:57:23.649Z,1.70
2022-08-05T07:59:53.643Z,2.08
2022-08-05T08:02:30.825Z,1.90
2022-08-05T08:04:59.626Z,1.98
2022-08-05T08:07:28.514Z,2.03
2022-08-05T08:09:56.990Z,1.90
2022-08-05T08:12:33.475Z,1.80
2022-08-05T08:15:14.001Z,1.90
2022-08-05T08:17:52.308Z,1.80
2022-08-05T08:20:59.751Z,2.05
2022-08-05T08:23:59.839Z,2.03
2022-08-05T08:28:36.964Z,2.00
2022-08-05T08:31:15.136Z,1.85
2022-08-05T08:33:45.681Z,2.08
2022-08-05T08:36:47.584Z,2.00
2022-08-05T08:39:02.171Z,2.10
2022-08-05T08:41:51.989Z,2.20
2022-08-05T08:45:23.563Z,2.05
2022-08-05T08:47:47.669Z,1.85
2022-08-05T08:50:31.807Z,2.00
2022-08-05T08:52:55.948Z,2.10
2022-08-05T08:56:01.877Z,2.13
2022-08-05T08:58:12.939Z,1.88
2022-08-05T09:00:42.653Z,1.80
2022-08-05T09:03:15.882Z,2.13
2022-08-05T09:06:09.259Z,2.03
2022-08-05T09:08:32.126Z,2.10
2022-08-05T09:10:59.843Z,1.83
2022-08-05T09:13:31.796Z,2.20
2022-08-05T09:16:16.737Z,2.20
2022-08-05T09:18:44.687Z,1.88
2022-08-05T09:21:20.604Z,1.87
2022-08-05T09:24:08.784Z,2.38
2022-08-05T09:26:37.931Z,1.98
2022-08-05T09:29:08.851Z,2.03
2022-08-05T09:32:41.002Z,2.13
2022-08-05T09:34:26.143Z,2.13
2022-08-05T09:36:56.221Z,2.00
2022-08-05T09:39:39.238Z,1.65
2022-08-05T09:42:23.583Z,1.90
2022-08-05T09:44:56.691Z,1.88
2022-08-05T09:47:35.197Z,1.90
2022-08-05T09:50:38.042Z,2.03
2022-08-05T09:53:07.336Z,1.88
2022-08-05T09:55:56.403Z,1.88
2022-08-05T09:58:25.678Z,1.63
2022-08-05T10:01:14.844Z,1.95
2022-08-05T10:04:03.657Z,2.00
2022-08-05T10:06:32.409Z,1.95
2022-08-05T10:09:27.490Z,1.50
2022-08-05T10:12:30.338Z,1.90
2022-08-05T10:15:16.228Z,1.90
2022-08-05T10:18:01.713Z,1.97
2022-08-05T10:20:31.531Z,1.90
2022-08-05T10:23:01.889Z,2.05
2022-08-05T10:25:31.159Z,1.65
2022-08-05T10:28:13.360Z,1.75
2022-08-05T10:32:49.186Z,2.33
2022-08-05T10:36:04.580Z,1.77
2022-08-05T10:38:34.208Z,1.80
2022-08-05T10:41:25.914Z,1.77
2022-08-05T10:44:18.407Z,1.77
2022-08-05T10:46:50.558Z,1.70
2022-08-05T10:49:26.789Z,1.75
2022-08-05T10:52:00.463Z,1.80
2022-08-05T10:55:02.448Z,1.70
2022-08-05T10:57:32.032Z,1.90
2022-08-05T11:00:24.375Z,1.73
2022-08-05T11:03:24.233Z,1.98
2022-08-05T11:06:14.618Z,2.05
2022-08-05T11:09:32.056Z,1.83
2022-08-05T11:12:27.154Z,1.50
2022-08-05T11:15:19.928Z,1.83
2022-08-05T11:17:58.675Z,1.98
2022-08-05T11:20:39.244Z,2.17
2022-08-05T11:24:02.742Z,2.47
2022-08-05T11:26:28.954Z,1.88
2022-08-05T11:29:12.789Z,1.77
2022-08-05T11:31:54.138Z,1.77
2022-08-05T11:34:39.505Z,1.75
2022-08-05T11:38:36.741Z,1.80
2022-08-05T11:40:00.721Z,1.73
2022-08-05T11:42:37.911Z,1.75
2022-08-05T11:45:23.430Z,1.80
2022-08-05T11:47:57.947Z,2.05
2022-08-05T11:50:26.666Z,1.85
2022-08-05T11:52:57.962Z,2.00
2022-08-05T11:55:32.014Z,1.80
2022-08-05T11:58:10.385Z,1.80
2022-08-05T12:00:41.547Z,1.92
2022-08-05T12:03:28.386Z,1.95
2022-08-05T12:06:03.089Z,1.75
2022-08-05T12:08:39.470Z,1.88
2022-08-05T12:11:23.052Z,1.83
2022-08-05T12:14:10.099Z,1.90
2022-08-05T12:16:40.217Z,1.90
2022-08-05T12:20:25.629Z,1.80
2022-08-05T12:22:01.693Z,1.70
2022-08-05T12:24:29.982Z,1.90
2022-08-05T12:29:27.450Z,1.60
2022-08-05T12:31:58.490Z,1.60
2022-08-05T12:34:37.022Z,1.73
2022-08-05T12:37:16.991Z,1.80
2022-08-05T12:39:51.044Z,1.90
2022-08-05T12:42:20.946Z,1.92
2022-08-05T12:44:49.199Z,1.55
2022-08-05T12:47:30.942Z,1.77
2022-08-05T12:50:03.629Z,1.40
2022-08-05T12:52:42.027Z,1.58
2022-08-05T12:55:22.323Z,1.70
2022-08-05T12:58:49.608Z,2.03
2022-08-05T13:02:03.767Z,1.50
2022-08-05T13:03:34.356Z,1.80
2022-08-05T13:06:08.098Z,1.67
2022-08-05T13:08:40.311Z,1.70
2022-08-05T13:11:08.538Z,1.60
2022-08-05T13:14:06.642Z,1.83
2022-08-05T13:16:27.821Z,1.60
2022-08-05T13:18:57.968Z,1.60
2022-08-05T13:21:28.489Z,1.85
2022-08-05T13:24:51.427Z,1.70
2022-08-05T13:27:04.913Z,1.50
2022-08-05T13:29:38.936Z,1.58
2022-08-05T13:32:33.081Z,1.83
2022-08-05T13:35:03.071Z,1.52
2022-08-05T13:37:34.502Z,1.80
2022-08-05T13:40:16.358Z,1.88
2022-08-05T13:42:47.935Z,1.80
2022-08-05T13:45:23.425Z,1.60
2022-08-05T13:50:37.522Z,1.60
2022-08-05T13:53:05.060Z,2.10
2022-08-05T13:55:42.004Z,1.52
2022-08-05T13:58:30.205Z,1.52
2022-08-05T14:00:58.990Z,1.40
2022-08-05T14:03:28.327Z,1.60
2022-08-05T14:06:25.450Z,1.80
2022-08-05T14:08:44.291Z,1.50
2022-08-05T14:11:20.709Z,1.63
2022-08-05T14:13:49.600Z,1.73
2022-08-05T14:16:23.168Z,1.75
2022-08-05T14:18:51.370Z,1.60
2022-08-05T14:22:08.435Z,1.60
2022-08-05T14:24:09.934Z,2.00
2022-08-05T14:26:56.427Z,1.75
2022-08-05T14:29:26.280Z,1.60
2022-08-05T14:32:02.910Z,1.73
2022-08-05T14:34:40.814Z,1.70
2022-08-05T14:37:09.364Z,1.63
2022-08-05T14:39:49.545Z,1.63
2022-08-05T14:42:25.020Z,1.50
2022-08-05T14:44:52.930Z,1.60
2022-08-05T14:48:03.602Z,1.70
2022-08-05T14:50:18.514Z,1.60
2022-08-05T14:52:53.623Z,1.45
2022-08-05T14:55:28.773Z,1.90
2022-08-05T14:58:11.112Z,3.15
2022-08-05T15:00:59.417Z,1.92
2022-08-05T15:03:34.075Z,1.83
2022-08-05T15:06:14.797Z,1.60
2022-08-05T15:08:59.725Z,2.65
2022-08-05T15:11:52.745Z,1.92
2022-08-05T15:14:34.734Z,1.77
2022-08-05T15:19:57.507Z,1.63
2022-08-05T15:22:27.120Z,1.80
2022-08-05T15:24:56.878Z,1.75
2022-08-05T15:27:25.458Z,1.85
2022-08-05T15:29:56.601Z,1.85
2022-08-05T15:32:28.585Z,1.60
2022-08-05T15:34:57.463Z,1.75
2022-08-05T15:38:32.815Z,2.00
2022-08-05T15:41:04.233Z,1.80
2022-08-05T15:43:12.581Z,1.70
2022-08-05T15:45:46.917Z,1.98
2022-08-05T15:48:15.344Z,1.70
2022-08-05T15:53:14.507Z,1.65
2022-08-05T15:56:02.333Z,1.85
2022-08-05T15:58:37.064Z,1.67
2022-08-05T16:01:16.424Z,1.60
2022-08-05T16:03:50.385Z,1.65
2022-08-05T16:06:19.586Z,1.55
2022-08-05T16:08:50.855Z,1.77
2022-08-05T16:11:42.586Z,1.67
2022-08-05T16:14:09.157Z,1.48
2022-08-05T16:16:37.156Z,1.50
2022-08-05T16:19:05.193Z,1.50
2022-08-05T16:21:58.563Z,1.80
2022-08-05T16:24:36.122Z,1.65
2022-08-05T16:27:08.459Z,1.65
2022-08-05T16:32:09.756Z,1.63
2022-08-05T16:34:39.390Z,1.65
2022-08-05T16:38:00.400Z,1.63
2022-08-05T16:40:06.496Z,1.90
2022-08-05T16:42:36.018Z,1.50
2022-08-05T16:46:02.802Z,1.88
2022-08-05T16:47:54.399Z,1.65
2022-08-05T16:50:25.189Z,1.77
2022-08-05T16:52:52.831Z,1.90
2022-08-05T16:55:24.617Z,1.67
2022-08-05T16:57:53.392Z,1.70
2022-08-05T17:00:34.010Z,1.92
2022-08-05T17:03:03.981Z,1.80
2022-08-05T17:05:41.035Z,1.77
2022-08-05T17:08:13.393Z,1.60
2022-08-05T17:10:41.765Z,1.83
2022-08-05T17:13:17.115Z,1.70
2022-08-05T17:15:55.613Z,1.95
2022-08-05T17:18:35.185Z,1.65
2022-08-05T17:21:02.938Z,1.70
2022-08-05T17:24:05.103Z,1.98
2022-08-05T17:26:20.114Z,2.00
2022-08-05T17:28:47.751Z,1.93
2022-08-05T17:31:24.711Z,1.93
2022-08-05T17:34:03.248Z,1.98
2022-08-05T17:36:36.077Z,2.22
2022-08-05T17:39:23.771Z,1.95
2022-08-05T17:42:17.768Z,2.20
2022-08-05T17:44:39.294Z,2.22
2022-08-05T17:47:06.918Z,2.00
2022-08-05T17:49:51.961Z,2.08
2022-08-05T17:52:22.661Z,2.47
2022-08-05T17:54:59.273Z,1.70
2022-08-05T17:57:27.921Z,2.15
2022-08-05T18:00:03.611Z,2.00
2022-08-05T18:02:34.416Z,2.40
2022-08-05T18:05:06.464Z,2.00
2022-08-05T18:07:41.332Z,2.30
2022-08-05T18:10:11.709Z,2.42
2022-08-05T18:15:16.527Z,2.33
2022-08-05T18:17:59.599Z,2.22
2022-08-05T18:20:32.541Z,2.10
2022-08-05T18:23:09.391Z,2.08
2022-08-05T18:25:44.858Z,2.35
2022-08-05T18:28:16.305Z,2.70
2022-08-05T18:30:51.052Z,2.70
2022-08-05T18:33:22.991Z,2.78
2022-08-05T18:36:04.075Z,2.55
2022-08-05T18:38:36.298Z,2.60
2022-08-05T18:41:55.476Z,2.20
2022-08-05T18:43:53.461Z,2.45
2022-08-05T18:46:21.703Z,2.30
2022-08-05T18:48:54.010Z,2.38
2022-08-05T18:52:04.714Z,2.40
2022-08-05T18:54:31.355Z,2.22
2022-08-05T18:57:01.074Z,2.38
2022-08-05T18:59:43.352Z,2.25
2022-08-05T19:02:26.938Z,2.30
2022-08-05T19:05:02.642Z,2.13
2022-08-05T19:07:50.134Z,2.10
2022-08-05T19:10:26.481Z,2.30
2022-08-05T19:12:57.149Z,1.92
2022-08-05T19:15:57.237Z,2.38
2022-08-05T19:18:21.929Z,2.45
2022-08-05T19:20:54.708Z,2.30
2022-08-05T19:24:05.457Z,1.92
2022-08-05T19:26:11.900Z,2.40
2022-08-05T19:28:42.291Z,1.95
2022-08-05T19:31:13.269Z,2.10
2022-08-05T19:33:47.895Z,2.00
2022-08-05T19:36:29.329Z,2.30
2022-08-05T19:39:01.486Z,2.17
2022-08-05T19:41:34.710Z,2.15
2022-08-05T19:44:19.307Z,2.10
2022-08-05T19:46:47.475Z,2.85
2022-08-05T19:49:18.554Z,2.80
2022-08-05T19:52:08.324Z,2.90
2022-08-05T19:54:35.453Z,2.33
2022-08-05T19:57:08.631Z,2.42
2022-08-05T19:59:55.577Z,2.25
2022-08-05T20:02:31.269Z,2.00
2022-08-05T20:04:59.729Z,2.60
2022-08-05T20:10:17.416Z,2.05
2022-08-05T20:12:49.249Z,1.92
2022-08-05T20:15:23.011Z,2.13
2022-08-05T20:18:10.017Z,2.40
2022-08-05T20:20:56.733Z,2.70
2022-08-05T20:23:40.480Z,2.67
2022-08-05T20:26:15.434Z,2.15
2022-08-05T20:28:49.785Z,2.58
2022-08-05T20:31:21.867Z,2.50
2022-08-05T20:33:56.152Z,2.47
2022-08-05T20:36:24.384Z,2.20
2022-08-05T20:38:57.713Z,2.58
2022-08-05T20:41:43.537Z,2.40
2022-08-05T20:44:18.566Z,2.35
2022-08-05T20:46:58.003Z,2.70
2022-08-05T20:49:25.887Z,2.28
2022-08-05T20:51:55.308Z,2.40
2022-08-05T20:54:42.916Z,2.65
2022-08-05T20:57:42.095Z,2.58
2022-08-05T21:00:20.639Z,2.97
2022-08-05T21:02:56.942Z,2.60
2022-08-05T21:05:25.151Z,2.33
2022-08-05T21:07:52.842Z,2.50
2022-08-05T21:10:21.574Z,2.70
2022-08-05T21:13:08.926Z,2.55
2022-08-05T21:15:37.044Z,2.65
2022-08-05T21:18:05.088Z,2.60
2022-08-05T21:20:34.174Z,2.40
2022-08-05T21:23:02.984Z,2.72
2022-08-05T21:28:03.299Z,2.60
2022-08-05T21:30:31.730Z,2.20
2022-08-05T21:33:01.772Z,2.60
2022-08-05T21:35:55.515Z,2.47
2022-08-05T21:38:19.183Z,2.10
2022-08-05T21:40:46.785Z,2.40
2022-08-05T21:43:17.685Z,2.40
2022-08-05T21:45:57.882Z,2.58
2022-08-05T21:48:28.929Z,2.28
2022-08-05T21:50:57.328Z,2.30
2022-08-05T21:53:27.749Z,2.22
2022-08-05T21:56:09.744Z,2.08
2022-08-05T21:58:48.440Z,2.83
2022-08-05T22:01:26.346Z,2.45
2022-08-05T22:03:54.242Z,2.60
2022-08-05T22:06:35.095Z,2.60
2022-08-05T22:09:15.066Z,2.45
2022-08-05T22:11:46.903Z,2.40
2022-08-05T22:14:33.427Z,2.83
2022-08-05T22:17:03.780Z,2.45
2022-08-05T22:20:02.015Z,2.58
2022-08-05T22:22:27.812Z,2.40
2022-08-05T22:25:18.109Z,2.75
2022-08-05T22:30:53.534Z,3.10
2022-08-05T22:33:57.945Z,2.65
2022-08-05T22:36:14.610Z,2.83
2022-08-05T22:38:48.203Z,2.95
2022-08-05T22:41:26.280Z,2.90
2022-08-05T22:44:08.739Z,3.38
2022-08-05T22:46:39.439Z,2.75
2022-08-05T22:49:46.237Z,3.15
2022-08-05T22:52:04.364Z,2.90
2022-08-05T22:54:36.689Z,2.70
2022-08-05T22:57:07.430Z,2.85
2022-08-05T22:59:44.066Z,3.25
2022-08-05T23:02:17.607Z,2.90
2022-08-05T23:04:52.210Z,3.15
2022-08-05T23:07:22.737Z,3.30
2022-08-05T23:09:58.471Z,3.17
2022-08-05T23:12:32.355Z,3.22
2022-08-05T23:15:03.044Z,2.95
2022-08-05T23:17:37.546Z,3.17
2022-08-05T23:20:20.876Z,3.42
2022-08-05T23:22:56.104Z,3.50
2022-08-05T23:25:51.003Z,3.47
2022-08-05T23:28:12.204Z,3.13
2022-08-05T23:30:43.591Z,3.40
2022-08-05T23:33:22.026Z,3.67
2022-08-05T23:35:56.165Z,3.70
2022-08-05T23:38:26.117Z,3.35
2022-08-05T23:40:54.383Z,3.42
2022-08-05T23:43:24.885Z,3.28
2022-08-05T23:46:20.037Z,3.60
2022-08-05T23:49:00.746Z,3.25
2022-08-05T23:51:52.714Z,3.53
2022-08-05T23:54:30.355Z,3.85
2022-08-05T23:57:05.028Z,3.65
2022-08-05T23:59:37.648Z,3.50
